Time;durP1;ratioP1;P1;durP2;ratioP2;P2;SDS_P1;SDS_P2;PMS_P1;PMS_P2;Temp;Humidity;BMP_temperature;BMP_pressure;BME280_temperature;BME280_humidity;BME280_pressure;Samples;Min_cycle;Max_cycle;Signal;HPM_P1;HPM_P2
2023/01/18 00:01:06;;;;;;;15.70;3.97;;;;;;;14.01;61.06;98241.81;5091146;28;20160;-80
2023/01/18 00:03:33;;;;;;;12.93;4.30;;;;;;;14.19;61.07;98270.09;5091065;28;20024;-80
2023/01/18 00:06:02;;;;;;;14.85;4.40;;;;;;;14.38;60.69;98315.91;5090825;28;20125;-80
2023/01/18 00:08:30;;;;;;;14.32;3.78;;;;;;;14.46;61.35;98312.94;5090917;28;20040;-80
2023/01/18 00:11:10;;;;;;;18.20;4.65;;;;;;;14.69;61.29;98357.25;5091087;28;20032;-80
2023/01/18 00:13:36;;;;;;;14.50;3.85;;;;;;;14.56;60.85;98327.22;5091713;28;20027;-80
2023/01/18 00:16:03;;;;;;;11.30;4.35;;;;;;;14.23;60.97;98297.78;5095087;28;20024;-80
2023/01/18 00:18:28;;;;;;;17.77;4.53;;;;;;;14.51;60.88;98329.78;5094679;28;20024;-80
2023/01/18 00:20:53;;;;;;;14.82;4.40;;;;;;;13.89;61.46;98212.63;5093162;28;20044;-81
2023/01/18 00:23:19;;;;;;;13.63;3.95;;;;;;;14.16;61.05;98259.94;5094537;28;20031;-81
2023/01/18 00:25:44;;;;;;;16.70;4.22;;;;;;;14.58;61.36;98342.94;5094419;28;20031;-80
2023/01/18 00:28:09;;;;;;;15.82;4.10;;;;;;;14.52;61.28;98338.56;5094592;28;20107;-81
2023/01/18 00:30:35;;;;;;;13.60;4.35;;;;;;;14.44;61.18;98320.31;5094673;28;20024;-81
2023/01/18 00:33:00;;;;;;;14.07;4.15;;;;;;;14.22;61.59;98291.66;5094530;28;20518;-80
2023/01/18 00:35:26;;;;;;;25.50;4.88;;;;;;;14.17;61.69;98264.22;5094701;28;20048;-81
2023/01/18 00:37:53;;;;;;;18.98;5.05;;;;;;;14.30;61.64;98290.50;5094363;28;20024;-80
2023/01/18 00:40:20;;;;;;;15.15;4.35;;;;;;;14.35;61.72;98303.09;5093373;28;20456;-80
2023/01/18 00:45:29;;;;;;;19.20;4.57;;;;;;;14.43;61.67;98327.47;5094288;28;20515;-80
2023/01/18 00:47:54;;;;;;;16.05;3.85;;;;;;;14.00;61.66;98243.66;5092905;28;20032;-81
2023/01/18 00:50:21;;;;;;;16.98;4.75;;;;;;;14.62;61.94;98336.91;5094179;28;20038;-81
2023/01/18 00:52:47;;;;;;;14.95;4.45;;;;;;;14.73;61.51;98353.88;5094156;28;20028;-80
2023/01/18 00:55:14;;;;;;;16.45;4.68;;;;;;;14.70;61.89;98353.53;5094079;28;20024;-79
2023/01/18 00:57:40;;;;;;;14.65;4.45;;;;;;;14.19;61.69;98276.22;5094202;28;20032;-80
2023/01/18 01:00:08;;;;;;;14.15;3.72;;;;;;;14.69;61.80;98341.31;5092823;28;20557;-80
2023/01/18 01:02:37;;;;;;;25.75;4.80;;;;;;;14.08;62.17;98260.25;5094065;28;20020;-81
2023/01/18 01:07:50;;;;;;;15.57;4.85;;;;;;;14.55;62.40;98343.41;5094070;28;20073;-81
2023/01/18 01:10:15;;;;;;;21.48;5.05;;;;;;;14.43;62.47;98343.41;5093868;28;20028;-81
2023/01/18 01:26:23;;;;;;;21.05;4.68;;;;;;;14.55;63.03;98367.31;5093417;28;20047;-81
2023/01/18 01:28:50;;;;;;;16.35;4.88;;;;;;;14.68;62.82;98368.91;5092464;28;20028;-81
2023/01/18 01:31:17;;;;;;;20.33;4.28;;;;;;;14.69;62.78;98365.22;5093537;28;20161;-80
2023/01/18 01:33:43;;;;;;;19.52;3.85;;;;;;;14.60;62.86;98376.19;5093577;28;20035;-81
2023/01/18 01:36:12;;;;;;;17.27;4.25;;;;;;;14.68;62.98;98371.56;5091945;28;20555;-80
2023/01/18 01:38:40;;;;;;;19.88;4.78;;;;;;;14.68;62.79;98351.13;5091941;28;20074;-81
2023/01/18 01:41:12;;;;;;;19.58;4.80;;;;;;;14.69;62.92;98376.66;5091973;28;20032;-81
2023/01/18 01:43:37;;;;;;;17.70;4.03;;;;;;;14.66;63.07;98360.38;5093051;28;20397;-81
2023/01/18 01:46:09;;;;;;;21.05;4.88;;;;;;;14.20;63.34;98290.28;5093045;28;20031;-81
2023/01/18 01:48:34;;;;;;;18.85;4.70;;;;;;;14.00;63.45;98264.06;5093444;28;20494;-80
2023/01/18 01:51:01;;;;;;;18.63;5.43;;;;;;;14.02;63.22;98283.22;5093253;28;20028;-81
2023/01/18 01:53:27;;;;;;;23.35;5.28;;;;;;;12.45;63.11;98023.13;5091856;28;20024;-80
2023/01/18 01:55:52;;;;;;;12.77;4.30;;;;;;;14.03;63.17;98262.81;5093308;28;20012;-81
2023/01/18 01:58:24;;;;;;;24.60;5.07;;;;;;;14.09;63.24;98291.88;5092778;28;20028;-80
2023/01/18 02:00:49;;;;;;;16.25;5.00;;;;;;;13.69;63.00;98209.50;5091653;28;20107;-80
2023/01/18 02:03:19;;;;;;;18.73;4.53;;;;;;;14.31;63.00;98292.13;5092906;28;20062;-80
2023/01/18 02:05:52;;;;;;;19.60;4.30;;;;;;;14.30;62.94;98307.25;5092639;28;20081;-80
2023/01/18 02:08:21;;;;;;;18.45;4.50;;;;;;;14.38;63.04;98287.50;5092699;28;20024;-80
2023/01/18 02:10:51;;;;;;;20.77;4.47;;;;;;;14.68;62.92;98351.13;5091380;28;20059;-80
2023/01/18 02:13:19;;;;;;;17.45;4.45;;;;;;;13.91;62.68;98234.44;5092708;28;20056;-80
2023/01/18 02:16:32;;;;;;;17.95;4.45;;;;;;;14.74;62.49;98338.75;5092762;28;20105;-81
2023/01/18 02:19:12;;;;;;;17.05;4.45;;;;;;;14.70;62.62;98321.66;5092100;28;20024;-80
2023/01/18 02:21:57;;;;;;;15.85;3.53;;;;;;;14.41;62.63;98297.66;5092349;28;20020;-80
2023/01/18 02:24:59;;;;;;;21.52;4.00;;;;;;;14.34;62.33;98274.94;5092346;28;20024;-81
2023/01/18 02:27:29;;;;;;;;;;;;;;;14.59;62.89;98333.91;5091430;28;20039;-81
2023/01/18 02:30:13;;;;;;;20.40;4.35;;;;;;;14.69;62.40;98325.34;5090970;28;19908;-80
2023/01/18 02:32:51;;;;;;;19.85;4.72;;;;;;;14.72;62.01;98323.03;5092672;28;20028;-80
2023/01/18 02:35:32;;;;;;;14.18;4.40;;;;;;;14.74;61.83;98325.47;5092307;28;20028;-80
2023/01/18 02:38:16;;;;;;;20.58;4.78;;;;;;;14.45;61.73;98282.09;5091552;28;20035;-80
2023/01/18 02:40:55;;;;;;;16.38;3.78;;;;;;;14.67;61.27;98327.44;5092717;28;20028;-80
2023/01/18 02:46:29;;;;;;;18.00;4.30;;;;;;;14.49;62.04;98326.53;5091848;28;20565;-81
2023/01/18 02:48:56;;;;;;;18.88;4.43;;;;;;;14.76;61.81;98348.09;5090788;28;20032;-80
2023/01/18 02:51:21;;;;;;;16.55;4.03;;;;;;;14.74;61.54;98360.00;5091981;28;20027;-80
2023/01/18 02:53:47;;;;;;;16.27;4.22;;;;;;;14.76;61.40;98352.59;5091898;28;20027;-80
2023/01/18 02:56:20;;;;;;;19.08;4.28;;;;;;;14.18;61.03;98266.63;5091852;28;20024;-81
2023/01/18 02:58:50;;;;;;;21.67;4.63;;;;;;;14.80;61.16;98365.19;5090640;28;20024;-80
2023/01/18 03:01:16;;;;;;;15.98;4.20;;;;;;;14.80;61.06;98365.19;5091861;28;20470;-81
2023/01/18 03:03:45;;;;;;;14.65;3.92;;;;;;;14.79;60.76;98363.56;5091822;28;20089;-81
2023/01/18 03:06:11;;;;;;;16.33;3.67;;;;;;;14.41;60.98;98313.59;5090424;28;20024;-81
2023/01/18 03:08:47;;;;;;;18.75;4.25;;;;;;;14.83;60.89;98369.22;5092041;28;20031;-81
2023/01/18 03:11:26;;;;;;;13.15;4.65;;;;;;;14.23;60.67;98293.28;5091885;28;20515;-80
2023/01/18 03:14:16;;;;;;;17.77;4.18;;;;;;;14.78;60.87;98371.78;5092024;28;20038;-80
2023/01/18 03:16:57;;;;;;;13.50;4.43;;;;;;;14.79;60.63;98373.41;5090415;28;20489;-80
2023/01/18 03:22:17;;;;;;;14.02;4.47;;;;;;;13.98;61.00;98247.56;5091989;28;20042;-80
2023/01/18 03:24:44;;;;;;;15.60;4.97;;;;;;;14.60;61.05;98373.53;5091690;28;20028;-81
2023/01/18 03:35:28;;;;;;;17.40;4.20;;;;;;;14.44;61.55;98329.09;5091528;28;20031;-80
2023/01/18 03:37:56;;;;;;;20.83;3.90;;;;;;;14.75;61.40;98373.06;5091299;28;20076;-80
2023/01/18 03:40:27;;;;;;;21.77;4.43;;;;;;;14.19;61.63;98316.03;5091287;28;20050;-80
2023/01/18 03:43:13;;;;;;;18.17;4.68;;;;;;;14.40;61.51;98343.84;5091086;28;20028;-80
2023/01/18 03:45:43;;;;;;;23.35;5.53;;;;;;;14.41;61.74;98349.97;5091055;28;20036;-80
2023/01/18 03:48:09;;;;;;;16.58;4.45;;;;;;;14.02;61.87;98303.66;5092835;28;20020;-81
2023/01/18 03:50:59;;;;;;;20.33;4.78;;;;;;;14.07;61.69;98288.66;5095901;28;20084;-80
2023/01/18 03:53:39;;;;;;;19.27;4.32;;;;;;;14.73;61.81;98390.28;5093869;28;20024;-80
2023/01/18 03:56:12;;;;;;;21.55;5.18;;;;;;;14.09;61.75;98281.25;5093873;28;20024;-80
2023/01/18 03:58:38;;;;;;;17.63;5.30;;;;;;;14.43;61.75;98348.72;5095217;28;20028;-80
2023/01/18 04:01:05;;;;;;;19.65;4.78;;;;;;;14.70;62.02;98382.75;5093938;28;20024;-80
2023/01/18 04:03:32;;;;;;;19.50;5.43;;;;;;;14.70;61.83;98372.94;5095012;28;20020;-80
2023/01/18 04:06:03;;;;;;;17.80;5.03;;;;;;;14.28;61.95;98311.97;5095189;28;20035;-80
2023/01/18 04:08:28;;;;;;;17.77;5.60;;;;;;;14.02;61.88;98261.19;5095022;28;20540;-80
2023/01/18 04:10:53;;;;;;;19.15;5.40;;;;;;;14.47;62.31;98331.28;5095014;28;20106;-80
2023/01/18 04:13:19;;;;;;;22.23;5.57;;;;;;;14.58;62.54;98370.31;5095270;28;20028;-80
2023/01/18 04:15:44;;;;;;;19.05;5.10;;;;;;;14.36;62.26;98324.09;5095159;28;20016;-80
2023/01/18 04:18:09;;;;;;;16.48;4.78;;;;;;;13.53;62.10;98188.97;5094895;28;20508;-80
2023/01/18 04:20:35;;;;;;;20.00;4.32;;;;;;;13.98;62.18;98251.03;5094729;28;20051;-80
2023/01/18 04:23:00;;;;;;;18.05;5.07;;;;;;;13.12;62.13;98112.94;5094618;28;20055;-80
2023/01/18 04:25:26;;;;;;;22.70;5.13;;;;;;;14.50;62.37;98332.66;5094498;28;20408;-80
2023/01/18 04:27:51;;;;;;;13.75;4.50;;;;;;;14.06;62.15;98265.81;5094539;28;20042;-80
2023/01/18 04:30:17;;;;;;;15.77;4.40;;;;;;;14.26;62.42;98321.22;5094466;28;20199;-80
2023/01/18 04:32:45;;;;;;;19.35;4.97;;;;;;;14.26;62.28;98343.28;5094535;28;20034;-80
2023/01/18 04:35:10;;;;;;;23.60;5.22;;;;;;;14.22;62.31;98320.88;5094651;28;20024;-80
2023/01/18 04:37:37;;;;;;;21.40;4.57;;;;;;;14.31;62.53;98327.44;5094266;28;20512;-80
2023/01/18 04:40:05;;;;;;;16.90;5.07;;;;;;;13.96;62.27;98284.16;5094153;28;20099;-80
2023/01/18 04:42:31;;;;;;;20.65;5.50;;;;;;;14.63;62.51;98373.06;5094040;28;20023;-80
2023/01/18 04:44:58;;;;;;;16.63;4.78;;;;;;;14.33;62.44;98343.16;5092795;28;20180;-81
2023/01/18 04:47:24;;;;;;;18.75;4.63;;;;;;;14.20;62.48;98315.00;5094289;28;20117;-80
2023/01/18 04:49:49;;;;;;;15.25;4.55;;;;;;;13.97;62.67;98291.88;5094412;28;20012;-80
2023/01/18 04:52:15;;;;;;;19.48;5.35;;;;;;;14.18;62.22;98319.72;5094191;28;20035;-80
2023/01/18 04:54:40;;;;;;;21.90;5.53;;;;;;;14.16;62.20;98315.69;5092789;28;20032;-80
2023/01/18 04:57:05;;;;;;;19.10;5.10;;;;;;;14.38;62.31;98358.38;5094094;28;20063;-80
2023/01/18 04:59:31;;;;;;;18.70;5.00;;;;;;;14.36;62.09;98361.28;5092099;28;20032;-80
2023/01/18 05:01:56;;;;;;;18.88;5.45;;;;;;;14.14;61.82;98325.72;5092912;28;20047;-80
2023/01/18 05:04:22;;;;;;;18.52;5.20;;;;;;;14.53;61.76;98391.44;5092824;28;20031;-80
2023/01/18 05:06:48;;;;;;;18.73;5.05;;;;;;;13.97;62.01;98315.75;5092521;28;20067;-80
2023/01/18 05:09:13;;;;;;;17.13;4.68;;;;;;;14.55;61.88;98393.88;5093862;28;20035;-80
2023/01/18 05:11:39;;;;;;;18.50;4.90;;;;;;;14.45;61.56;98372.38;5093892;28;20024;-80
2023/01/18 05:14:04;;;;;;;21.10;5.35;;;;;;;14.65;61.38;98401.25;5093811;28;20485;-81
2023/01/18 05:16:30;;;;;;;20.52;4.72;;;;;;;14.63;61.86;98388.19;5093793;28;20024;-80
2023/01/18 05:18:55;;;;;;;20.10;5.55;;;;;;;14.52;61.97;98379.19;5092232;28;20031;-80
2023/01/18 05:21:21;;;;;;;16.48;4.68;;;;;;;13.88;61.71;98324.28;5093570;28;20031;-79
2023/01/18 05:23:46;;;;;;;13.20;4.22;;;;;;;14.22;62.09;98351.94;5092340;28;20039;-80
2023/01/18 05:26:20;;;;;;;13.35;4.43;;;;;;;14.60;61.89;98407.25;5093587;28;20039;-80
2023/01/18 05:28:46;;;;;;;16.23;4.40;;;;;;;13.92;62.22;98320.13;5093410;28;20389;-80
2023/01/18 05:31:13;;;;;;;21.92;6.28;;;;;;;14.60;62.22;98423.19;5093361;28;20032;-80
2023/01/18 05:33:39;;;;;;;21.02;5.10;;;;;;;14.57;62.38;98429.78;5096983;28;20069;-81
2023/01/18 05:36:05;;;;;;;17.85;4.45;;;;;;;14.30;62.08;98388.75;5094861;28;20450;-81
2023/01/18 05:38:30;;;;;;;24.73;6.15;;;;;;;14.15;62.56;98372.47;5093368;28;20024;-80
2023/01/18 05:40:56;;;;;;;17.73;5.47;;;;;;;14.01;62.21;98377.16;5093874;28;20020;-80
2023/01/18 05:43:23;;;;;;;21.63;5.50;;;;;;;14.40;62.12;98417.38;5093520;28;20024;-80
2023/01/18 05:45:49;;;;;;;17.60;5.47;;;;;;;14.19;62.28;98408.13;5091720;28;20114;-80
2023/01/18 05:48:14;;;;;;;13.60;4.43;;;;;;;14.16;62.31;98379.38;5093163;28;20038;-80
2023/01/18 05:50:44;;;;;;;19.75;5.55;;;;;;;14.06;62.23;98379.13;5092914;28;20054;-80
2023/01/18 05:53:11;;;;;;;22.80;5.55;;;;;;;14.17;62.26;98371.19;5091689;28;20035;-80
2023/01/18 05:55:36;;;;;;;24.27;6.75;;;;;;;13.65;62.30;98294.03;5092907;28;20115;-80
2023/01/18 05:58:02;;;;;;;21.30;6.30;;;;;;;14.03;62.36;98364.47;5091770;28;20111;-80
2023/01/18 06:00:29;;;;;;;15.82;4.38;;;;;;;14.54;62.65;98435.56;5092948;28;20070;-80
2023/01/18 06:02:54;;;;;;;21.48;7.00;;;;;;;14.02;62.27;98362.03;5093231;28;20028;-80
2023/01/18 06:05:21;;;;;;;22.88;5.90;;;;;;;14.54;62.34;98430.25;5092724;28;20061;-80
2023/01/18 06:07:46;;;;;;;23.98;5.78;;;;;;;13.50;62.30;98271.66;5092660;28;20149;-80
2023/01/18 06:10:12;;;;;;;19.40;5.60;;;;;;;14.50;62.53;98441.56;5092813;28;20098;-80
2023/01/18 06:12:38;;;;;;;22.13;6.07;;;;;;;14.12;62.63;98389.66;5090305;28;20484;-80
2023/01/18 06:15:04;;;;;;;16.83;6.10;;;;;;;14.11;62.42;98393.31;5092661;28;20031;-80
2023/01/18 06:17:30;;;;;;;23.83;6.57;;;;;;;13.63;62.63;98308.56;5092695;28;20035;-80
2023/01/18 06:19:56;;;;;;;16.30;7.03;;;;;;;13.91;62.70;98356.47;5092298;28;20055;-80
2023/01/18 06:22:22;;;;;;;23.60;8.85;;;;;;;14.28;62.80;98425.34;5092628;28;20488;-81
2023/01/18 06:24:48;;;;;;;17.65;6.80;;;;;;;14.51;62.56;98453.81;5092466;28;20516;-80
2023/01/18 06:27:13;;;;;;;20.00;9.55;;;;;;;14.32;62.78;98429.16;5092378;28;20096;-80
2023/01/18 06:29:39;;;;;;;17.65;6.70;;;;;;;13.55;62.27;98263.81;5092142;28;20032;-81
2023/01/18 06:32:04;;;;;;;18.60;6.30;;;;;;;14.38;62.16;98388.41;5090645;28;20070;-80
2023/01/18 06:34:30;;;;;;;21.88;5.85;;;;;;;14.88;61.94;98475.66;5092128;28;20103;-80
2023/01/18 06:36:55;;;;;;;24.30;6.50;;;;;;;14.49;62.40;98416.03;5092106;28;20059;-80
2023/01/18 06:39:20;;;;;;;22.00;5.57;;;;;;;13.92;62.42;98330.75;5090923;28;20024;-80
2023/01/18 06:41:46;;;;;;;20.52;6.07;;;;;;;14.36;62.26;98410.91;5090752;28;20389;-80
2023/01/18 06:44:11;;;;;;;24.00;5.63;;;;;;;14.49;62.81;98454.03;5091938;28;20035;-80
2023/01/18 06:46:37;;;;;;;22.50;6.40;;;;;;;13.83;62.93;98337.44;5090510;28;20031;-80
2023/01/18 06:49:02;;;;;;;22.15;6.53;;;;;;;14.44;62.63;98467.19;5092366;28;20522;-80
2023/01/18 06:51:27;;;;;;;21.48;6.35;;;;;;;13.93;62.80;98380.94;5091990;28;20146;-80
2023/01/18 06:53:53;;;;;;;24.98;6.43;;;;;;;13.95;63.27;98394.78;5091913;28;20463;-80
2023/01/18 06:56:18;;;;;;;23.80;6.75;;;;;;;14.61;63.30;98493.88;5090598;28;20436;-80
2023/01/18 06:58:44;;;;;;;23.33;7.20;;;;;;;14.35;63.47;98455.25;5088790;28;20516;-80
2023/01/18 07:01:09;;;;;;;24.65;7.00;;;;;;;14.16;63.16;98430.63;5095537;28;20055;-80
2023/01/18 07:03:35;;;;;;;25.20;7.57;;;;;;;14.13;62.89;98417.00;5083516;28;20054;-80
2023/01/18 07:06:02;;;;;;;17.30;6.32;;;;;;;14.56;63.24;98486.59;5086850;28;20488;-80
2023/01/18 07:08:29;;;;;;;17.27;6.63;;;;;;;14.69;62.96;98498.03;5085757;28;20040;-80
2023/01/18 07:10:56;;;;;;;19.00;5.75;;;;;;;13.69;62.90;98328.88;5083068;28;20031;-79
2023/01/18 07:13:22;;;;;;;23.20;5.95;;;;;;;13.99;62.92;98379.22;5089012;28;20027;-81
2023/01/18 07:15:53;;;;;;;24.13;6.25;;;;;;;14.72;63.21;98479.78;5088502;28;20060;-80
2023/01/18 07:18:19;;;;;;;30.75;11.10;;;;;;;14.46;63.26;98440.41;5090669;28;20020;-80
2023/01/18 07:20:44;;;;;;;33.42;11.50;;;;;;;14.67;63.27;98469.06;5089945;28;20129;-80
2023/01/18 07:23:10;;;;;;;28.80;14.82;;;;;;;14.30;63.33;98424.06;5086100;28;20497;-80
2023/01/18 07:25:35;;;;;;;24.15;8.32;;;;;;;14.53;63.16;98463.16;5086199;28;20024;-80
2023/01/18 07:28:03;;;;;;;19.30;6.50;;;;;;;13.89;63.03;98376.31;5087870;28;20450;-80
2023/01/18 07:30:29;;;;;;;24.80;7.10;;;;;;;13.73;62.87;98318.63;5097254;28;20031;-80
2023/01/18 07:32:54;;;;;;;22.42;6.30;;;;;;;14.58;62.78;98439.38;5091027;28;20111;-80
2023/01/18 07:35:21;;;;;;;27.33;6.57;;;;;;;14.97;62.66;98506.19;5103990;28;20107;-80
2023/01/18 07:37:51;;;;;;;22.30;5.55;;;;;;;15.00;62.63;98508.38;5083006;28;20140;-81
2023/01/18 07:40:20;;;;;;;29.05;10.43;;;;;;;13.50;62.17;98263.69;5085955;28;20085;-80
2023/01/18 07:42:46;;;;;;;23.02;5.70;;;;;;;15.11;61.92;98526.16;5085573;28;20035;-81
2023/01/18 07:45:12;;;;;;;25.13;7.53;;;;;;;14.73;62.02;98480.59;5087253;28;20393;-80
2023/01/18 07:47:41;;;;;;;19.85;5.38;;;;;;;14.13;62.32;98372.69;5090209;28;20024;-80
2023/01/18 07:50:07;;;;;;;19.20;7.07;;;;;;;14.63;62.13;98451.97;5103755;28;20023;-80
2023/01/18 07:52:33;;;;;;;26.92;7.75;;;;;;;15.04;62.30;98522.00;5089485;28;20031;-80
2023/01/18 07:54:58;;;;;;;26.60;7.10;;;;;;;14.99;61.92;98512.06;5082527;28;20220;-80
2023/01/18 07:57:24;;;;;;;18.83;5.07;;;;;;;14.46;61.81;98443.06;5089259;28;20043;-80
2023/01/18 07:59:50;;;;;;;21.00;5.53;;;;;;;14.88;61.76;98515.53;5087933;28;20028;-80
2023/01/18 08:02:15;;;;;;;22.73;7.13;;;;;;;15.25;61.52;98564.78;5091049;28;20058;-80
2023/01/18 08:04:41;;;;;;;27.73;7.85;;;;;;;14.72;61.53;98449.75;5085417;28;20023;-80
2023/01/18 08:07:07;;;;;;;21.73;5.65;;;;;;;15.39;61.47;98573.31;5085205;28;20163;-80
2023/01/18 08:09:35;;;;;;;19.85;5.20;;;;;;;14.94;61.23;98504.78;5086523;28;20515;-80
2023/01/18 08:12:00;;;;;;;21.30;5.82;;;;;;;15.46;61.22;98567.88;5090034;28;20028;-80
2023/01/18 08:14:26;;;;;;;17.55;6.80;;;;;;;14.84;61.37;98474.47;5090541;28;20028;-78
2023/01/18 08:16:52;;;;;;;20.35;5.53;;;;;;;14.92;60.98;98490.91;5087062;28;20035;-80
2023/01/18 08:19:17;;;;;;;23.80;4.75;;;;;;;14.78;61.18;98473.56;5082841;28;20054;-80
2023/01/18 08:21:43;;;;;;;23.08;6.03;;;;;;;15.17;60.82;98540.38;5082707;28;20055;-80
2023/01/18 08:24:09;;;;;;;17.42;5.45;;;;;;;15.35;61.11;98552.72;5083116;28;20024;-79
2023/01/18 08:26:34;;;;;;;24.73;5.30;;;;;;;14.89;60.97;98487.91;5087492;28;20020;-79
2023/01/18 08:29:00;;;;;;;20.05;5.80;;;;;;;14.79;60.41;98453.13;5090332;28;20473;-81
2023/01/18 08:31:25;;;;;;;19.00;4.78;;;;;;;15.10;60.86;98526.41;5091239;28;20424;-79
2023/01/18 08:33:51;;;;;;;21.50;5.88;;;;;;;15.33;60.07;98549.50;5095127;28;20051;-80
2023/01/18 08:36:22;;;;;;;24.73;5.72;;;;;;;15.25;60.12;98545.34;5092110;28;20027;-80
2023/01/18 08:38:54;;;;;;;22.05;6.72;;;;;;;15.57;60.35;98597.16;5092810;28;20085;-80
2023/01/18 08:41:21;;;;;;;24.90;6.75;;;;;;;15.60;60.04;98587.91;5089491;28;20416;-79
2023/01/18 08:43:51;;;;;;;18.30;6.97;;;;;;;15.23;60.05;98545.56;5091818;28;20107;-81
2023/01/18 08:46:16;;;;;;;21.00;5.63;;;;;;;14.94;59.58;98483.53;5094343;28;20084;-80
2023/01/18 08:48:42;;;;;;;21.25;6.30;;;;;;;15.53;59.68;98558.72;5088424;28;20028;-81
2023/01/18 08:51:08;;;;;;;19.88;7.00;;;;;;;15.60;59.71;98581.78;5090549;28;20036;-80
2023/01/18 08:53:33;;;;;;;22.77;10.50;;;;;;;15.52;59.53;98545.66;5089864;28;20519;-80
2023/01/18 08:56:03;;;;;;;19.35;6.80;;;;;;;15.45;59.44;98564.41;5087042;28;20138;-80
2023/01/18 08:58:30;;;;;;;20.65;5.85;;;;;;;15.56;58.73;98523.66;5088923;28;20035;-80
2023/01/18 09:00:56;;;;;;;24.45;8.90;;;;;;;15.64;59.24;98509.25;5091314;28;20084;-80
2023/01/18 09:03:21;;;;;;;23.35;8.85;;;;;;;16.16;58.42;98562.44;5090843;28;20024;-81
2023/01/18 09:05:48;;;;;;;23.60;6.20;;;;;;;16.03;58.13;98533.41;5090775;28;20032;-79
2023/01/18 09:08:13;;;;;;;15.13;4.75;;;;;;;16.01;57.04;98525.66;5090135;28;20559;-80
2023/01/18 09:10:38;;;;;;;22.02;5.03;;;;;;;15.52;56.73;98416.09;5084717;28;20110;-80
2023/01/18 09:13:04;;;;;;;22.48;5.45;;;;;;;15.80;56.72;98465.13;5091998;28;20497;-79
2023/01/18 09:15:31;;;;;;;22.92;5.45;;;;;;;15.74;56.85;98453.56;5100590;28;20074;-79
2023/01/18 09:17:57;;;;;;;20.58;6.22;;;;;;;16.04;56.66;98481.78;5085960;28;20027;-79
2023/01/18 09:20:23;;;;;;;20.90;5.30;;;;;;;15.71;56.52;98435.41;5080719;28;20039;-81
2023/01/18 09:22:48;;;;;;;18.88;5.45;;;;;;;16.68;56.67;98573.00;5091384;28;20436;-80
2023/01/18 09:25:14;;;;;;;20.75;5.45;;;;;;;16.58;56.96;98556.81;5090544;28;20039;-78
2023/01/18 09:27:39;;;;;;;24.25;8.40;;;;;;;16.04;56.38;98481.78;5097918;28;20117;-79
2023/01/18 09:30:06;;;;;;;18.20;5.65;;;;;;;16.76;56.22;98588.59;5091627;28;20028;-79
2023/01/18 09:32:31;;;;;;;17.55;6.45;;;;;;;16.19;55.99;98514.00;5090943;28;20113;-79
2023/01/18 09:34:56;;;;;;;16.33;4.65;;;;;;;16.39;55.53;98513.59;5088814;28;20528;-80
2023/01/18 09:37:22;;;;;;;17.52;4.07;;;;;;;16.92;55.18;98598.44;5090436;28;20450;-80
2023/01/18 09:39:48;;;;;;;19.42;5.80;;;;;;;16.99;54.93;98606.28;5086027;28;20027;-80
2023/01/18 09:42:20;;;;;;;15.23;4.75;;;;;;;17.00;55.10;98597.25;5091655;28;20024;-79
2023/01/18 09:44:50;;;;;;;26.05;11.27;;;;;;;17.04;54.94;98612.50;5086672;28;20042;-79
2023/01/18 09:47:45;;;;;;;18.13;6.35;;;;;;;16.86;55.13;98566.63;5088956;28;20039;-80
2023/01/18 09:50:16;;;;;;;17.58;6.07;;;;;;;16.80;55.24;98568.41;5085683;28;20024;-80
2023/01/18 09:52:53;;;;;;;17.77;5.40;;;;;;;17.04;54.98;98580.50;5092944;28;20077;-80
2023/01/18 09:55:47;;;;;;;17.92;5.63;;;;;;;17.00;55.09;98566.06;5091820;28;20432;-80
2023/01/18 09:58:34;;;;;;;20.20;5.45;;;;;;;17.02;54.92;98587.94;5093037;28;20031;-80
2023/01/18 10:01:15;;;;;;;16.60;4.88;;;;;;;17.04;55.14;98559.19;5090094;28;20035;-80
2023/01/18 10:04:05;;;;;;;20.30;5.67;;;;;;;17.05;54.85;98552.78;5091938;28;20192;-80
2023/01/18 10:07:00;;;;;;;24.48;8.15;;;;;;;17.09;54.82;98555.78;5086200;28;20032;-80
2023/01/18 10:09:30;;;;;;;20.20;8.43;;;;;;;17.04;54.99;98564.50;5069832;28;20113;-79
2023/01/18 10:12:01;;;;;;;19.02;5.45;;;;;;;17.01;54.65;98545.53;5090227;28;20037;-80
2023/01/18 10:14:45;;;;;;;;;;;;;;;16.96;55.35;98548.13;5083374;28;20020;-80
2023/01/18 10:17:19;;;;;;;19.55;5.97;;;;;;;14.79;54.81;98188.22;5092751;28;19959;-80
2023/01/18 10:19:44;;;;;;;22.20;7.28;;;;;;;16.40;54.75;98443.28;5108333;28;20134;-80
2023/01/18 10:22:39;;;;;;;23.58;7.30;;;;;;;17.18;54.42;98562.34;5082340;28;20119;-80
2023/01/18 10:25:17;;;;;;;20.20;7.25;;;;;;;17.23;54.27;98559.75;5087981;28;20032;-81
2023/01/18 10:27:48;;;;;;;19.45;4.68;;;;;;;17.24;54.02;98561.38;5085721;28;20031;-80
2023/01/18 10:30:17;;;;;;;18.85;5.00;;;;;;;17.27;53.67;98560.06;5090193;28;20030;-80
2023/01/18 10:32:50;;;;;;;18.88;5.63;;;;;;;15.62;53.63;98333.06;5086668;28;20120;-79
2023/01/18 10:35:41;;;;;;;23.33;7.95;;;;;;;17.45;53.50;98565.13;5090319;28;20111;-80
2023/01/18 10:38:11;;;;;;;24.88;7.57;;;;;;;16.94;52.80;98460.38;5085392;28;20043;-80
2023/01/18 10:40:38;;;;;;;21.08;6.95;;;;;;;17.28;53.20;98540.34;5090219;28;20033;-80
2023/01/18 10:43:09;;;;;;;24.13;8.88;;;;;;;17.54;53.18;98576.19;5092162;28;20028;-80
2023/01/18 10:45:35;;;;;;;22.05;7.63;;;;;;;17.11;53.24;98522.50;5090806;28;20412;-81
2023/01/18 10:48:23;;;;;;;21.65;6.20;;;;;;;17.55;53.43;98591.16;5090186;28;20031;-80
2023/01/18 10:50:59;;;;;;;22.83;7.35;;;;;;;17.15;53.03;98528.97;5091317;28;20032;-80
2023/01/18 10:53:38;;;;;;;25.38;5.90;;;;;;;17.23;53.23;98558.94;5088719;28;20024;-79
2023/01/18 10:56:15;;;;;;;18.05;4.85;;;;;;;17.05;53.04;98534.13;5087892;28;20025;-80
2023/01/18 10:58:46;;;;;;;24.20;6.07;;;;;;;17.41;53.38;98580.81;5086473;28;20405;-80
2023/01/18 11:01:15;;;;;;;24.05;6.63;;;;;;;17.27;53.75;98592.09;5084865;28;20028;-80
2023/01/18 11:04:04;;;;;;;19.38;5.47;;;;;;;17.14;54.27;98562.03;5087166;28;20024;-80
2023/01/18 11:06:56;;;;;;;24.83;10.35;;;;;;;17.30;54.46;98591.59;5088370;28;20078;-80
2023/01/18 11:09:40;;;;;;;;;;;;;;;17.24;54.50;98592.56;5091777;28;20062;-80
2023/01/18 11:12:33;;;;;;;22.42;7.25;;;;;;;17.32;54.01;98600.16;5090579;28;20002;-80
2023/01/18 11:15:14;;;;;;;23.98;5.90;;;;;;;17.36;53.89;98601.28;5088747;28;20411;-81
2023/01/18 11:17:41;;;;;;;16.90;5.03;;;;;;;17.38;53.79;98616.00;5089269;28;20045;-80
2023/01/18 11:20:15;;;;;;;23.02;6.43;;;;;;;17.25;53.82;98592.34;5080177;28;20067;-80
2023/01/18 11:23:02;;;;;;;23.38;5.07;;;;;;;17.45;53.45;98600.63;5101146;28;20039;-80
2023/01/18 11:25:37;;;;;;;24.65;6.68;;;;;;;16.80;53.50;98515.88;5090813;28;20028;-80
2023/01/18 11:28:06;;;;;;;27.88;6.10;;;;;;;17.38;53.84;98580.50;5088921;28;20409;-79
2023/01/18 11:30:32;;;;;;;23.15;6.45;;;;;;;17.35;53.93;98605.81;5092293;28;20023;-79
2023/01/18 11:32:58;;;;;;;24.95;6.32;;;;;;;17.01;54.26;98541.00;5091532;28;20028;-79
2023/01/18 11:35:32;;;;;;;21.10;5.22;;;;;;;17.06;54.27;98553.59;5083369;28;20028;-79
2023/01/18 11:38:00;;;;;;;24.75;6.55;;;;;;;16.99;54.33;98544.97;5089618;28;20024;-81
2023/01/18 11:40:28;;;;;;;19.25;5.28;;;;;;;17.42;53.89;98593.13;5090927;28;20058;-80
2023/01/18 11:43:02;;;;;;;26.30;5.75;;;;;;;16.89;53.97;98508.28;5087543;28;20024;-79
2023/01/18 11:45:41;;;;;;;24.83;5.57;;;;;;;17.00;54.00;98565.25;5080313;28;20024;-80
2023/01/18 11:48:09;;;;;;;18.42;6.30;;;;;;;17.39;54.41;98587.47;5070841;28;20107;-80
2023/01/18 11:50:44;;;;;;;25.10;5.97;;;;;;;16.90;54.16;98517.91;5070966;28;20070;-80
2023/01/18 11:53:30;;;;;;;21.08;5.18;;;;;;;17.36;54.30;98591.44;5070984;28;20027;-80
2023/01/18 11:56:31;;;;;;;29.40;5.95;;;;;;;17.34;54.35;98598.88;5070935;28;20020;-81
2023/01/18 11:58:57;;;;;;;27.25;6.18;;;;;;;17.20;54.51;98586.91;5086863;28;20047;-79
2023/01/18 12:01:42;;;;;;;21.88;5.50;;;;;;;17.27;54.43;98594.75;5088479;28;20026;-81
2023/01/18 12:04:32;;;;;;;18.67;5.70;;;;;;;16.99;54.69;98574.28;5086047;28;20035;-80
2023/01/18 12:07:22;;;;;;;24.17;6.35;;;;;;;17.18;54.64;98607.69;5090358;28;20028;-80
2023/01/18 12:09:51;;;;;;;25.60;6.55;;;;;;;17.15;54.90;98622.31;5091694;28;20591;-79
2023/01/18 12:12:28;;;;;;;26.10;6.53;;;;;;;17.17;55.25;98618.59;5095189;28;20091;-80